Time;durP1;ratioP1;P1;durP2;ratioP2;P2;SDS_P1;SDS_P2;PMS_P1;PMS_P2;Temp;Humidity;BMP_temperature;BMP_pressure;BME280_temperature;BME280_humidity;BME280_pressure;Samples;Min_cycle;Max_cycle;Signal;HPM_P1;HPM_P2
2022/04/16 00:00:40;;;;;;;6.65;3.05;;;;;;;14.39;58.18;101564.69;1657622;86;21067;-67
2022/04/16 00:03:10;;;;;;;7.97;3.12;;;;;;;14.38;58.25;101558.61;1656624;86;21508;-67
2022/04/16 00:05:36;;;;;;;6.92;3.08;;;;;;;14.38;58.28;101552.06;1655087;85;21079;-67
2022/04/16 00:08:08;;;;;;;7.92;3.77;;;;;;;14.37;58.31;101543.78;1654856;86;21559;-68
2022/04/16 00:10:39;;;;;;;6.33;3.60;;;;;;;14.36;58.34;101559.06;1651774;86;21079;-68
2022/04/16 00:13:07;;;;;;;5.33;3.10;;;;;;;14.35;58.43;101556.05;1632462;87;21135;-67
2022/04/16 00:15:34;;;;;;;9.28;3.40;;;;;;;14.35;58.51;101552.13;1635026;87;21552;-68
2022/04/16 00:18:03;;;;;;;10.75;3.10;;;;;;;14.34;58.55;101553.48;1634985;87;21093;-67
2022/04/16 00:20:33;;;;;;;8.58;3.50;;;;;;;14.33;58.58;101544.77;1633695;87;21719;-68
2022/04/16 00:22:59;;;;;;;3.72;2.98;;;;;;;14.33;58.60;101538.66;1632293;87;21135;-67
2022/04/16 00:25:25;;;;;;;6.80;3.20;;;;;;;14.31;58.66;101540.02;1626785;87;21554;-67
2022/04/16 00:27:55;;;;;;;6.17;3.22;;;;;;;14.32;58.68;101548.73;1632237;87;21038;-67
2022/04/16 00:30:22;;;;;;;5.47;3.37;;;;;;;14.31;58.71;101536.09;1633791;87;21145;-67
2022/04/16 00:32:51;;;;;;;7.35;3.65;;;;;;;14.31;58.72;101535.22;1635337;87;21034;-67
2022/04/16 00:35:19;;;;;;;4.97;3.17;;;;;;;14.29;58.83;101535.27;1635239;87;21057;-68
2022/04/16 00:37:46;;;;;;;6.97;2.90;;;;;;;14.28;58.79;101530.04;1638319;87;21651;-67
2022/04/16 00:40:13;;;;;;;8.23;3.15;;;;;;;14.27;58.84;101539.64;1634177;87;21053;-68
2022/04/16 00:45:12;;;;;;;7.33;3.00;;;;;;;14.26;58.90;101527.44;1614110;88;21060;-67
2022/04/16 00:47:40;;;;;;;7.87;3.65;;;;;;;14.26;58.87;101532.67;1615866;88;21624;-68
2022/04/16 00:50:09;;;;;;;9.68;3.25;;;;;;;14.26;58.87;101533.14;1613221;88;21050;-68
2022/04/16 00:52:38;;;;;;;4.92;2.87;;;;;;;14.24;58.96;101525.30;1611115;88;21026;-68
2022/04/16 00:55:08;;;;;;;10.38;3.72;;;;;;;14.23;58.93;101524.91;1611306;88;21581;-67
2022/04/16 00:57:38;;;;;;;8.10;3.30;;;;;;;14.21;58.96;101521.47;1610224;87;21617;-68
2022/04/16 01:00:07;;;;;;;4.33;2.80;;;;;;;14.22;59.08;101523.65;1609516;88;21065;-68
2022/04/16 01:02:35;;;;;;;11.68;3.27;;;;;;;14.21;59.04;101523.22;1609725;88;21606;-68
2022/04/16 01:05:06;;;;;;;9.65;4.10;;;;;;;14.19;59.06;101515.41;1610004;88;21077;-68
2022/04/16 01:07:34;;;;;;;5.95;2.83;;;;;;;14.18;59.04;101512.37;1611983;88;21077;-68
2022/04/16 01:10:01;;;;;;;8.90;3.80;;;;;;;14.19;59.07;101513.23;1626629;87;21033;-68
2022/04/16 01:12:29;;;;;;;7.45;4.35;;;;;;;14.20;59.09;101513.66;1636498;87;21092;-68
2022/04/16 01:14:57;;;;;;;9.00;3.47;;;;;;;14.19;59.08;101500.15;1636014;87;21589;-68
2022/04/16 01:17:24;;;;;;;8.50;3.50;;;;;;;14.19;59.07;101501.02;1637335;87;21033;-68
2022/04/16 01:19:51;;;;;;;10.13;4.15;;;;;;;14.20;59.13;101494.03;1637997;87;21045;-68
2022/04/16 01:22:20;;;;;;;6.37;3.62;;;;;;;14.18;59.10;101492.73;1638217;87;21565;-68
2022/04/16 01:24:48;;;;;;;7.87;3.08;;;;;;;14.17;59.10;101488.42;1636669;87;21619;-68
2022/04/16 01:27:17;;;;;;;9.73;3.77;;;;;;;14.17;59.13;101483.63;1635351;87;21085;-68
2022/04/16 01:29:45;;;;;;;7.47;3.47;;;;;;;14.14;59.15;101478.02;1635013;87;21128;-67
2022/04/16 01:32:11;;;;;;;6.53;3.58;;;;;;;14.15;59.12;101481.05;1635153;87;21069;-67
2022/04/16 01:34:40;;;;;;;10.65;3.98;;;;;;;14.15;59.15;101481.05;1635539;87;21557;-68
2022/04/16 01:37:09;;;;;;;10.43;4.33;;;;;;;14.14;59.14;101480.63;1635028;87;21097;-68
2022/04/16 01:39:37;;;;;;;7.30;4.28;;;;;;;14.14;59.13;101481.94;1623427;87;21098;-68
2022/04/16 01:42:04;;;;;;;8.38;3.37;;;;;;;14.13;59.12;101480.23;1654452;85;21038;-68
2022/04/16 01:44:33;;;;;;;7.30;3.35;;;;;;;14.12;59.14;101479.80;1665825;85;21035;-67
2022/04/16 01:47:00;;;;;;;6.55;3.52;;;;;;;14.12;59.12;101477.19;1667322;85;21019;-68
2022/04/16 01:49:27;;;;;;;8.05;3.33;;;;;;;14.10;59.13;101461.97;1666561;85;21062;-68
2022/04/16 01:51:57;;;;;;;6.80;3.40;;;;;;;14.11;59.17;101463.70;1666924;85;21089;-68
2022/04/16 01:54:22;;;;;;;6.47;3.37;;;;;;;14.09;59.13;101458.96;1668267;85;21069;-68
2022/04/16 01:56:50;;;;;;;7.85;4.37;;;;;;;14.07;59.21;101450.29;1669362;84;21134;-67
2022/04/16 01:59:16;;;;;;;7.55;3.15;;;;;;;14.06;59.23;101444.63;1667270;85;21098;-67
2022/04/16 02:01:45;;;;;;;8.88;3.65;;;;;;;14.04;59.30;101450.35;1665115;85;21122;-68
2022/04/16 02:04:12;;;;;;;8.08;3.58;;;;;;;14.02;59.38;101448.22;1665289;85;21085;-68
2022/04/16 02:06:40;;;;;;;6.78;3.05;;;;;;;14.02;59.39;101441.68;1657469;84;21052;-68
2022/04/16 02:09:08;;;;;;;8.35;3.77;;;;;;;14.01;59.46;101445.21;1664963;85;21063;-67
2022/04/16 02:11:37;;;;;;;7.33;3.27;;;;;;;13.99;59.52;101449.63;1665354;85;21510;-68
2022/04/16 02:14:04;;;;;;;11.35;4.45;;;;;;;13.98;59.53;101443.09;1666039;85;21110;-67
2022/04/16 02:16:32;;;;;;;6.10;3.98;;;;;;;13.98;59.59;101437.42;1666980;85;21035;-68
2022/04/16 02:19:00;;;;;;;7.97;3.87;;;;;;;13.97;59.74;101437.03;1665156;85;21059;-68
2022/04/16 02:21:32;;;;;;;11.53;3.80;;;;;;;13.96;59.80;101440.97;1664888;85;21075;-67
2022/04/16 02:23:58;;;;;;;9.55;3.62;;;;;;;13.94;59.91;101437.09;1634983;86;21115;-68
2022/04/16 02:26:26;;;;;;;7.42;3.65;;;;;;;13.95;59.94;101434.86;1634996;86;21053;-68
2022/04/16 02:28:54;;;;;;;11.15;3.75;;;;;;;13.94;59.96;101435.78;1646871;86;21047;-68
2022/04/16 02:31:23;;;;;;;7.45;3.50;;;;;;;13.94;59.97;101434.47;1666882;85;21040;-68
2022/04/16 02:33:49;;;;;;;8.38;3.37;;;;;;;13.95;59.94;101432.25;1666609;85;21118;-68
2022/04/16 02:36:19;;;;;;;11.05;4.33;;;;;;;13.95;60.00;101432.25;1665361;85;21558;-68
2022/04/16 02:38:47;;;;;;;9.53;3.85;;;;;;;13.95;60.01;101428.80;1663883;85;21058;-68
2022/04/16 02:41:14;;;;;;;10.28;4.35;;;;;;;13.95;59.98;101420.95;1663863;85;21031;-68
2022/04/16 02:43:41;;;;;;;9.13;3.75;;;;;;;13.93;59.97;101415.73;1672591;85;21062;-68
2022/04/16 02:48:53;;;;;;;8.30;3.60;;;;;;;13.93;60.00;101418.34;1667773;85;21051;-68
2022/04/16 02:51:20;;;;;;;9.68;4.10;;;;;;;13.92;59.94;101419.27;1667705;85;21586;-68
2022/04/16 02:53:46;;;;;;;14.43;4.47;;;;;;;13.92;60.00;101427.11;1665605;85;21122;-68
2022/04/16 02:56:13;;;;;;;6.60;3.50;;;;;;;13.92;60.00;101431.47;1666504;85;21557;-68
2022/04/16 02:58:41;;;;;;;11.75;4.25;;;;;;;13.90;60.02;101432.83;1666858;85;21042;-68
2022/04/16 03:01:08;;;;;;;8.73;3.40;;;;;;;13.90;60.07;101439.38;1667795;85;21058;-68
2022/04/16 03:03:36;;;;;;;10.03;4.35;;;;;;;13.89;60.00;101439.81;1667766;85;21563;-68
2022/04/16 03:06:03;;;;;;;13.15;4.37;;;;;;;13.88;60.03;101429.39;1665475;85;21535;-68
2022/04/16 03:08:30;;;;;;;13.32;4.22;;;;;;;13.88;59.99;101430.70;1664952;85;21113;-68
2022/04/16 03:10:58;;;;;;;9.90;3.98;;;;;;;13.87;59.95;101427.22;1664825;85;21031;-68
2022/04/16 03:13:26;;;;;;;9.08;3.92;;;;;;;13.87;59.94;101418.06;1664998;85;21077;-68
2022/04/16 03:18:39;;;;;;;11.78;3.70;;;;;;;13.87;59.88;101413.27;1665139;85;21058;-68
2022/04/16 03:21:08;;;;;;;12.60;4.15;;;;;;;13.87;59.85;101413.27;1635228;85;21053;-68
2022/04/16 03:23:36;;;;;;;9.55;3.67;;;;;;;13.88;59.73;101413.70;1637604;86;21521;-67
2022/04/16 03:26:02;;;;;;;9.80;3.05;;;;;;;13.87;59.66;101410.21;1649234;86;21104;-68
2022/04/16 03:28:31;;;;;;;9.63;3.40;;;;;;;13.88;59.60;101412.39;1666175;85;21570;-67
2022/04/16 03:30:59;;;;;;;9.20;4.65;;;;;;;13.88;59.49;101413.70;1665772;85;21074;-68
2022/04/16 03:33:25;;;;;;;10.13;3.35;;;;;;;13.88;59.50;101413.26;1666945;85;21039;-68
2022/04/16 03:35:54;;;;;;;9.70;4.03;;;;;;;13.92;59.41;101413.16;1667499;85;21066;-67
2022/04/16 03:38:20;;;;;;;6.87;3.00;;;;;;;13.88;59.38;101422.41;1667761;85;21051;-67
2022/04/16 03:40:50;;;;;;;9.40;3.52;;;;;;;13.91;59.31;101420.14;1666149;85;21047;-68
2022/04/16 03:43:26;;;;;;;15.10;3.45;;;;;;;13.94;59.22;101420.52;1655776;85;21066;-67
2022/04/16 03:45:52;;;;;;;8.20;4.08;;;;;;;13.95;59.16;101420.95;1635344;86;21077;-67
2022/04/16 03:48:19;;;;;;;8.20;3.17;;;;;;;13.95;59.09;101412.63;1635824;86;21101;-68
2022/04/16 03:50:46;;;;;;;9.13;3.40;;;;;;;13.94;59.07;101410.92;1648467;86;21035;-67
2022/04/16 03:53:13;;;;;;;12.75;4.10;;;;;;;13.96;59.01;101416.98;1667753;85;21050;-67
2022/04/16 04:01:12;;;;;;;13.50;3.95;;;;;;;14.03;58.76;101422.48;1667579;85;21087;-67
2022/04/16 04:03:40;;;;;;;11.68;3.45;;;;;;;14.06;58.61;101422.39;1667607;85;21055;-68
2022/04/16 04:06:07;;;;;;;8.73;3.80;;;;;;;14.09;58.46;101436.72;1665664;85;21063;-67
2022/04/16 04:08:36;;;;;;;13.00;3.67;;;;;;;14.09;58.41;101439.34;1664680;85;21047;-67
2022/04/16 04:11:03;;;;;;;9.10;3.55;;;;;;;14.10;58.33;101446.27;1661005;85;21062;-67
2022/04/16 04:13:31;;;;;;;10.38;3.58;;;;;;;14.12;58.19;101443.16;1665303;85;21149;-67
2022/04/16 04:15:57;;;;;;;12.18;3.85;;;;;;;14.14;58.07;101443.12;1667713;85;21016;-67
2022/04/16 04:18:24;;;;;;;7.00;3.77;;;;;;;14.17;57.92;101443.92;1667646;85;21054;-67
2022/04/16 04:20:51;;;;;;;11.83;3.40;;;;;;;14.19;57.77;101442.12;1665857;85;21566;-67
2022/04/16 04:23:19;;;;;;;10.23;3.77;;;;;;;14.21;57.71;101446.87;1666024;85;21086;-67
2022/04/16 04:25:46;;;;;;;8.35;3.35;;;;;;;14.22;57.61;101446.42;1666641;85;21049;-67
2022/04/16 04:28:12;;;;;;;9.28;4.05;;;;;;;14.23;57.45;101443.77;1667405;85;21089;-66
2022/04/16 04:30:41;;;;;;;10.43;3.27;;;;;;;14.26;57.39;101448.06;1637193;86;21082;-66
2022/04/16 04:33:08;;;;;;;16.02;4.80;;;;;;;14.27;57.41;101451.95;1635573;86;21059;-67
2022/04/16 04:35:35;;;;;;;10.63;4.12;;;;;;;14.30;57.40;101447.95;1646920;86;21072;-67
2022/04/16 04:38:01;;;;;;;13.40;3.92;;;;;;;14.33;57.37;101440.04;1664419;85;21099;-67
2022/04/16 04:40:29;;;;;;;21.37;4.65;;;;;;;14.37;57.30;101446.91;1665037;85;21056;-66
2022/04/16 04:42:55;;;;;;;15.70;3.80;;;;;;;14.42;57.16;101438.94;1664841;85;21023;-66
2022/04/16 04:45:22;;;;;;;14.23;5.17;;;;;;;14.45;57.10;101442.33;1636427;86;21119;-66
2022/04/16 04:47:51;;;;;;;8.43;3.15;;;;;;;14.50;56.95;101443.08;1637344;86;21018;-67
2022/04/16 04:50:18;;;;;;;7.92;3.05;;;;;;;14.55;56.74;101441.17;1648981;86;21107;-66
2022/04/16 04:52:45;;;;;;;13.00;3.83;;;;;;;14.58;56.73;101441.11;1664693;85;21110;-67
2022/04/16 04:55:13;;;;;;;12.00;3.50;;;;;;;14.63;56.54;101435.27;1666318;85;21097;-67
2022/04/16 04:57:42;;;;;;;11.03;4.10;;;;;;;14.68;56.46;101425.55;1662375;84;21566;-66
2022/04/16 05:00:11;;;;;;;13.03;4.17;;;;;;;14.73;56.38;101432.41;1658746;86;21040;-67
2022/04/16 05:05:16;;;;;;;9.40;4.10;;;;;;;14.79;56.08;101433.55;1610515;87;21576;-66
2022/04/16 05:07:43;;;;;;;10.45;3.65;;;;;;;14.80;56.04;101422.15;1589278;90;21067;-66
2022/04/16 05:10:10;;;;;;;7.00;3.67;;;;;;;14.84;55.92;101429.05;1577280;89;21102;-67
2022/04/16 05:12:37;;;;;;;13.00;4.50;;;;;;;14.84;55.82;101429.05;1555200;92;21115;-66
2022/04/16 05:15:07;;;;;;;14.93;4.15;;;;;;;14.86;55.77;101435.11;1555090;90;21544;-66
2022/04/16 05:17:37;;;;;;;11.22;3.98;;;;;;;14.89;55.79;101435.00;1555003;90;21056;-66
2022/04/16 05:20:08;;;;;;;8.08;3.50;;;;;;;14.91;55.63;101446.30;1557978;90;21116;-66
2022/04/16 05:22:35;;;;;;;13.75;4.37;;;;;;;14.93;55.57;101437.94;1552783;90;21047;-65
2022/04/16 05:25:05;;;;;;;10.90;3.77;;;;;;;14.96;55.55;101439.18;1547510;90;21085;-65
2022/04/16 05:27:34;;;;;;;10.00;3.70;;;;;;;14.98;55.39;101432.96;1555250;90;21055;-65
2022/04/16 05:32:37;;;;;;;13.25;4.78;;;;;;;15.03;55.23;101447.25;1524862;92;21081;-65
2022/04/16 05:35:05;;;;;;;13.98;5.00;;;;;;;15.06;55.21;101448.48;1557548;92;21115;-66
2022/04/16 05:37:32;;;;;;;9.45;4.78;;;;;;;15.09;55.10;101451.00;1546901;92;21112;-65
2022/04/16 05:39:58;;;;;;;12.30;5.12;;;;;;;15.13;54.97;101452.62;1529198;92;21068;-65
2022/04/16 05:42:25;;;;;;;13.68;4.60;;;;;;;15.16;55.10;101448.62;1552543;92;21145;-66
2022/04/16 05:44:52;;;;;;;11.22;4.28;;;;;;;15.24;54.95;101451.88;1555158;90;21089;-65
2022/04/16 05:47:19;;;;;;;14.63;5.47;;;;;;;15.33;54.88;101466.03;1553278;92;21679;-65
2022/04/16 05:49:47;;;;;;;14.13;4.87;;;;;;;15.41;54.76;101460.10;1528767;93;21125;-65
2022/04/16 05:52:14;;;;;;;13.95;5.70;;;;;;;15.51;54.68;101456.32;1553882;90;21073;-65
2022/04/16 05:54:42;;;;;;;12.50;5.30;;;;;;;15.62;54.52;101453.38;1553052;90;21065;-65
2022/04/16 05:57:09;;;;;;;10.25;5.37;;;;;;;15.73;54.15;101457.80;1554221;90;21057;-65
2022/04/16 05:59:36;;;;;;;13.08;4.97;;;;;;;15.84;53.81;101453.95;1550815;90;21073;-66
2022/04/16 06:02:04;;;;;;;11.15;5.05;;;;;;;15.96;53.77;101448.30;1557970;90;21149;-65
2022/04/16 06:04:31;;;;;;;14.53;5.55;;;;;;;16.15;53.51;101449.86;1562520;91;21569;-65
2022/04/16 06:06:59;;;;;;;18.67;5.40;;;;;;;16.37;53.13;101453.91;1562927;90;21078;-65
2022/04/16 06:09:28;;;;;;;16.20;5.90;;;;;;;16.62;52.68;101456.12;1577474;87;21089;-66
2022/04/16 06:12:04;;;;;;;13.43;5.12;;;;;;;16.86;52.09;101452.16;1637294;86;21045;-66
2022/04/16 06:14:31;;;;;;;10.20;5.30;;;;;;;17.08;51.52;101446.98;1637588;86;21077;-66
2022/04/16 06:16:59;;;;;;;15.38;6.00;;;;;;;17.28;51.14;101448.84;1635539;86;21064;-66
2022/04/16 06:19:26;;;;;;;15.95;6.22;;;;;;;17.43;50.75;101433.34;1635973;86;21065;-66
2022/04/16 06:21:54;;;;;;;15.65;5.62;;;;;;;17.57;50.35;101432.38;1636278;87;21038;-66
2022/04/16 06:24:21;;;;;;;16.20;6.53;;;;;;;17.71;50.06;101433.98;1637426;86;21040;-66
2022/04/16 06:26:48;;;;;;;12.93;5.40;;;;;;;17.81;49.75;101432.69;1637134;86;21061;-65
2022/04/16 06:29:17;;;;;;;10.78;5.47;;;;;;;17.89;49.50;101434.55;1635605;86;21049;-66
2022/04/16 06:31:44;;;;;;;15.10;6.42;;;;;;;18.00;49.33;101439.83;1634873;86;21569;-66
2022/04/16 06:34:11;;;;;;;11.53;5.75;;;;;;;18.09;49.07;101434.19;1626108;86;21061;-66
2022/04/16 06:36:38;;;;;;;12.98;5.95;;;;;;;18.20;48.78;101437.21;1636649;87;21033;-65
2022/04/16 06:39:05;;;;;;;16.42;6.55;;;;;;;18.34;48.52;101434.88;1637169;86;21121;-65
2022/04/16 06:41:31;;;;;;;16.55;6.75;;;;;;;18.50;48.06;101439.91;1637149;86;21068;-65
2022/04/16 06:43:58;;;;;;;14.93;5.62;;;;;;;18.60;47.51;101432.84;1626917;86;21065;-66
2022/04/16 06:46:26;;;;;;;14.60;6.53;;;;;;;18.63;47.38;101439.73;1635893;86;21089;-66
2022/04/16 06:48:53;;;;;;;12.40;6.22;;;;;;;18.62;47.02;101443.31;1637347;86;21509;-66
2022/04/16 06:51:20;;;;;;;8.83;5.42;;;;;;;18.54;47.03;101443.66;1637009;86;21065;-66
2022/04/16 06:53:46;;;;;;;11.03;5.60;;;;;;;18.45;47.17;101444.05;1634638;86;21072;-66
2022/04/16 06:56:13;;;;;;;10.00;5.42;;;;;;;18.35;47.36;101441.84;1636183;86;21109;-65
2022/04/16 06:58:40;;;;;;;11.70;5.05;;;;;;;18.30;47.50;101443.83;1633297;87;21073;-66
2022/04/16 07:01:07;;;;;;;13.25;5.65;;;;;;;18.29;47.66;101442.10;1638698;86;21640;-65
2022/04/16 07:03:35;;;;;;;10.72;4.62;;;;;;;18.31;47.55;101440.26;1625792;86;21097;-65
2022/04/16 07:06:03;;;;;;;16.75;5.30;;;;;;;18.32;47.52;101441.50;1637473;86;21057;-65
2022/04/16 07:08:30;;;;;;;9.63;4.92;;;;;;;18.32;47.44;101447.26;1633475;87;21132;-66
2022/04/16 07:10:56;;;;;;;12.90;4.62;;;;;;;18.29;47.23;101442.10;1637493;86;21089;-65
2022/04/16 07:13:25;;;;;;;15.75;5.12;;;;;;;18.22;47.36;101440.63;1637491;86;21089;-66
2022/04/16 07:15:51;;;;;;;14.95;4.97;;;;;;;18.16;47.53;101439.12;1635219;86;21045;-65
2022/04/16 07:18:20;;;;;;;11.75;4.80;;;;;;;18.18;47.64;101448.27;1634355;86;21082;-65
2022/04/16 07:20:48;;;;;;;12.15;5.22;;;;;;;18.27;47.42;101436.05;1634695;86;21065;-66
2022/04/16 07:23:15;;;;;;;10.35;4.40;;;;;;;18.36;47.30;101440.94;1634933;86;21092;-64
2022/04/16 07:25:42;;;;;;;9.60;4.22;;;;;;;18.46;47.16;101431.73;1616043;87;21069;-65
2022/04/16 07:28:10;;;;;;;13.32;4.70;;;;;;;18.56;46.85;101447.09;1636891;86;21062;-66
2022/04/16 07:30:38;;;;;;;13.58;5.10;;;;;;;18.64;46.66;101438.83;1633532;87;21096;-65
2022/04/16 07:33:05;;;;;;;11.63;4.22;;;;;;;18.64;46.52;101440.15;1629564;86;21081;-65
2022/04/16 07:35:33;;;;;;;9.45;4.58;;;;;;;18.64;46.41;101441.47;1634571;86;21053;-65
2022/04/16 07:38:01;;;;;;;13.48;5.22;;;;;;;18.59;46.41;101439.48;1631428;86;21069;-65
2022/04/16 07:40:29;;;;;;;13.48;5.40;;;;;;;18.47;46.50;101443.97;1634402;86;21085;-65
2022/04/16 07:42:55;;;;;;;9.95;4.92;;;;;;;18.35;46.66;101439.20;1625033;86;21562;-65
2022/04/16 07:45:22;;;;;;;15.48;5.00;;;;;;;18.18;46.79;101443.00;1648072;86;21033;-67
2022/04/16 07:47:50;;;;;;;9.35;4.92;;;;;;;17.98;47.24;101449.12;1669576;84;21092;-66
2022/04/16 07:50:17;;;;;;;10.78;5.17;;;;;;;17.76;47.39;101447.80;1670159;84;21049;-65
2022/04/16 07:52:45;;;;;;;18.20;5.67;;;;;;;17.55;47.96;101453.94;1669014;84;21063;-67
2022/04/16 07:55:12;;;;;;;14.85;5.70;;;;;;;17.37;48.47;101459.86;1670194;85;21042;-68
2022/04/16 07:57:40;;;;;;;11.22;5.28;;;;;;;17.23;48.90;101463.97;1638350;86;21049;-66
2022/04/16 08:00:08;;;;;;;12.37;6.37;;;;;;;17.09;49.10;101464.02;1689962;84;21155;-67
2022/04/16 08:02:42;;;;;;;16.65;7.75;;;;;;;16.97;49.33;101464.92;1681014;84;21049;-68
2022/04/16 08:05:09;;;;;;;18.37;7.35;;;;;;;16.84;49.74;101471.52;1675840;84;21128;-67
2022/04/16 08:07:37;;;;;;;11.43;7.15;;;;;;;16.74;49.92;101476.71;1674889;84;21056;-67
2022/04/16 08:10:07;;;;;;;11.28;7.58;;;;;;;16.65;50.16;101479.69;1682136;84;21097;-65
2022/04/16 08:12:33;;;;;;;13.40;7.22;;;;;;;16.55;50.46;101476.98;1689239;84;21020;-67
2022/04/16 08:15:00;;;;;;;16.27;7.50;;;;;;;16.46;50.71;101483.82;1684461;84;21045;-67
2022/04/16 08:17:28;;;;;;;13.03;7.33;;;;;;;16.39;50.88;101483.61;1677384;84;21511;-66
2022/04/16 08:19:57;;;;;;;12.85;7.37;;;;;;;16.32;51.09;101487.37;1682224;84;21074;-67
2022/04/16 08:22:28;;;;;;;15.20;8.00;;;;;;;16.26;51.24;101477.91;1674110;84;21021;-67
2022/04/16 08:25:43;;;;;;;15.40;8.05;;;;;;;16.22;51.55;101473.23;1666642;84;21085;-66
2022/04/16 08:27:23;;;;;;;14.78;7.40;;;;;;;16.18;51.65;101480.80;1662139;84;21034;-67
2022/04/16 08:29:50;;;;;;;11.48;7.47;;;;;;;16.15;51.80;101476.98;1679705;84;21153;-67
2022/04/16 08:32:17;;;;;;;18.17;7.92;;;;;;;16.11;51.88;101487.19;1677192;84;21060;-64
2022/04/16 08:34:45;;;;;;;15.72;7.55;;;;;;;16.08;51.99;101478.53;1678644;84;21056;-65
2022/04/16 08:37:12;;;;;;;20.05;7.90;;;;;;;16.05;52.07;101484.73;1681069;84;21481;-66
2022/04/16 08:39:40;;;;;;;14.78;8.23;;;;;;;16.00;52.07;101477.48;1680757;84;21508;-66
2022/04/16 08:42:08;;;;;;;16.23;7.83;;;;;;;15.95;52.23;101475.44;1678808;84;21045;-66
2022/04/16 08:44:36;;;;;;;14.87;8.18;;;;;;;15.88;52.41;101468.69;1682610;84;21537;-66
2022/04/16 08:47:05;;;;;;;15.53;9.03;;;;;;;15.83;52.57;101465.34;1677807;84;21060;-66
2022/04/16 08:49:34;;;;;;;15.35;7.87;;;;;;;15.80;52.66;101473.33;1678309;84;21059;-66
2022/04/16 08:52:03;;;;;;;13.72;8.03;;;;;;;15.77;52.82;101462.92;1669999;84;21104;-66
2022/04/16 08:54:31;;;;;;;15.78;7.78;;;;;;;15.75;52.93;101464.73;1676588;84;21181;-65
2022/04/16 08:56:58;;;;;;;12.13;7.33;;;;;;;15.72;52.95;101466.16;1674628;84;21080;-65
2022/04/16 08:59:25;;;;;;;13.93;8.40;;;;;;;15.68;53.04;101466.30;1681672;84;21166;-66
2022/04/16 09:01:51;;;;;;;17.80;8.85;;;;;;;15.66;53.23;101472.88;1655402;86;21078;-67
2022/04/16 09:04:23;;;;;;;13.93;8.05;;;;;;;15.63;53.38;101454.63;1635517;86;21074;-66
2022/04/16 09:07:03;;;;;;;15.28;8.30;;;;;;;15.61;53.43;101460.37;1658803;86;21000;-67
2022/04/16 09:09:30;;;;;;;15.65;9.13;;;;;;;15.59;53.58;101458.70;1659784;85;21103;-66
2022/04/16 09:11:58;;;;;;;13.18;7.90;;;;;;;15.58;53.82;101459.14;1656841;86;21630;-66
2022/04/16 09:14:36;;;;;;;16.65;9.33;;;;;;;15.61;53.75;101456.44;1659947;86;21055;-67
2022/04/16 09:17:10;;;;;;;14.20;9.05;;;;;;;15.62;53.76;101452.89;1662216;84;21000;-66
2022/04/16 09:19:37;;;;;;;16.02;9.15;;;;;;;15.63;53.70;101457.25;1628511;87;21097;-66
2022/04/16 09:22:05;;;;;;;16.62;8.95;;;;;;;15.63;53.75;101459.88;1626970;88;21066;-67
2022/04/16 09:24:46;;;;;;;16.55;9.20;;;;;;;15.63;53.91;101455.94;1615466;88;21115;-66
2022/04/16 09:27:15;;;;;;;14.80;8.75;;;;;;;15.64;53.93;101457.64;1621143;88;21063;-67
2022/04/16 09:29:43;;;;;;;16.17;9.05;;;;;;;15.62;53.89;101458.14;1618540;88;21087;-68
2022/04/16 09:32:21;;;;;;;14.00;8.20;;;;;;;15.60;53.94;101463.89;1613534;88;21143;-67
2022/04/16 09:34:48;;;;;;;15.20;8.95;;;;;;;15.56;54.18;101460.95;1595186;89;21121;-67
2022/04/16 09:37:15;;;;;;;13.62;7.62;;;;;;;15.58;54.20;101463.56;1568113;90;21088;-67
2022/04/16 09:39:42;;;;;;;18.02;9.05;;;;;;;15.60;54.16;101456.02;1603567;89;21165;-67
2022/04/16 09:42:09;;;;;;;14.87;8.03;;;;;;;15.60;54.21;101457.33;1559751;90;21138;-66
2022/04/16 09:44:36;;;;;;;14.40;8.03;;;;;;;15.65;54.19;101459.38;1556544;91;21537;-67
2022/04/16 09:47:04;;;;;;;17.57;8.93;;;;;;;15.68;54.09;101459.29;1566625;90;21129;-67
2022/04/16 09:49:34;;;;;;;16.48;8.50;;;;;;;15.71;54.03;101458.31;1558898;91;21137;-67
2022/04/16 09:52:02;;;;;;;14.47;8.48;;;;;;;15.71;53.92;101454.37;1564023;90;21116;-66
2022/04/16 09:54:29;;;;;;;12.85;9.40;;;;;;;15.70;53.93;101452.23;1565398;90;21076;-67
2022/04/16 09:57:01;;;;;;;17.40;8.15;;;;;;;15.67;53.97;101451.00;1549294;91;21153;-66
2022/04/16 09:59:28;;;;;;;16.00;9.30;;;;;;;15.65;54.03;101446.25;1565092;90;21168;-67
2022/04/16 10:01:55;;;;;;;15.20;7.62;;;;;;;15.64;54.18;101452.88;1614638;87;21088;-66
2022/04/16 10:04:24;;;;;;;17.45;8.80;;;;;;;15.65;54.17;101447.56;1581913;89;21115;-67
2022/04/16 10:06:51;;;;;;;13.13;8.48;;;;;;;15.66;54.01;101436.63;1609940;88;21116;-67
2022/04/16 10:09:22;;;;;;;17.45;8.45;;;;;;;15.65;54.06;101450.19;1581234;89;21075;-66
2022/04/16 10:15:04;;;;;;;17.45;8.30;;;;;;;15.65;54.07;101448.88;1668415;84;21067;-63
2022/04/16 10:17:39;;;;;;;12.82;8.00;;;;;;;15.64;54.07;101451.55;1676883;84;21082;-62
2022/04/16 10:20:11;;;;;;;14.28;7.65;;;;;;;15.64;54.18;101457.64;1671009;84;21062;-65
2022/04/16 10:22:38;;;;;;;13.72;7.47;;;;;;;15.66;54.12;101447.95;1589753;89;21076;-67
2022/04/16 10:25:08;;;;;;;12.70;6.83;;;;;;;15.70;54.01;101446.98;1589116;89;21077;-65
2022/04/16 10:27:42;;;;;;;16.67;8.30;;;;;;;15.72;53.95;101441.23;1584843;90;21597;-65
2022/04/16 10:30:12;;;;;;;19.32;7.60;;;;;;;15.74;54.04;101447.73;1589890;90;21155;-65
2022/04/16 10:32:45;;;;;;;11.68;6.87;;;;;;;15.77;53.94;101460.30;1560299;91;21173;-66
2022/04/16 10:35:16;;;;;;;13.58;6.70;;;;;;;15.79;53.84;101453.23;1565526;91;21119;-65
2022/04/16 10:37:45;;;;;;;16.45;7.67;;;;;;;15.80;53.79;101456.27;1519797;93;21109;-66
2022/04/16 10:40:21;;;;;;;14.63;7.30;;;;;;;15.83;53.77;101452.22;1519417;94;21093;-66
2022/04/16 10:42:49;;;;;;;12.47;7.78;;;;;;;15.86;53.75;101450.83;1528104;93;21711;-66
2022/04/16 10:45:16;;;;;;;12.23;6.58;;;;;;;15.88;53.58;101452.08;1519845;93;22265;-65
2022/04/16 10:47:44;;;;;;;11.43;6.78;;;;;;;15.87;53.46;101445.97;1525120;93;21109;-65
2022/04/16 10:50:15;;;;;;;11.78;7.20;;;;;;;15.85;53.44;101445.16;1519638;93;21077;-65
2022/04/16 10:53:01;;;;;;;13.48;6.75;;;;;;;15.83;53.50;101441.72;1519450;93;21074;-66
2022/04/16 10:55:36;;;;;;;11.80;6.53;;;;;;;15.79;53.63;101446.66;1514843;93;21077;-67
2022/04/16 10:58:04;;;;;;;16.05;7.08;;;;;;;15.78;53.70;101443.66;1519807;93;21050;-66
2022/04/16 11:00:45;;;;;;;10.72;6.25;;;;;;;15.79;53.76;101441.42;1535067;91;21135;-66
2022/04/16 11:03:28;;;;;;;14.15;6.75;;;;;;;15.81;53.71;101437.42;1542746;91;21117;-66
2022/04/16 11:06:03;;;;;;;15.08;6.60;;;;;;;15.81;53.63;101435.67;1542648;91;21163;-66
2022/04/16 11:08:35;;;;;;;9.73;6.17;;;;;;;15.81;53.58;101433.48;1507995;94;21097;-67
2022/04/16 11:11:04;;;;;;;12.82;6.33;;;;;;;15.77;53.62;101423.55;1505220;94;21103;-66
2022/04/16 11:13:38;;;;;;;10.58;5.42;;;;;;;15.78;53.62;101428.36;1505591;94;21076;-66
2022/04/16 11:16:06;;;;;;;12.23;5.65;;;;;;;15.77;53.68;101434.05;1505262;94;21051;-67
2022/04/16 11:18:47;;;;;;;12.93;5.87;;;;;;;15.77;53.77;101427.49;1515448;91;21697;-66
2022/04/16 11:21:23;;;;;;;9.13;5.37;;;;;;;15.77;53.69;101426.17;1554279;92;21104;-66
2022/04/16 11:23:53;;;;;;;13.75;6.30;;;;;;;15.77;53.65;101415.69;1545079;92;21016;-67
2022/04/16 11:34:55;;;;;;;11.90;5.97;;;;;;;15.75;53.58;101418.81;1549248;91;21132;-66
2022/04/16 11:37:24;;;;;;;13.18;6.00;;;;;;;15.70;53.67;101425.12;1524120;93;21096;-65
2022/04/16 11:40:02;;;;;;;9.43;5.15;;;;;;;15.66;53.78;101426.13;1548475;92;21636;-65
2022/04/16 11:42:30;;;;;;;10.10;6.45;;;;;;;15.62;53.89;101416.16;1553321;92;21075;-67
2022/04/16 11:44:57;;;;;;;9.80;6.05;;;;;;;15.60;54.00;101415.36;1552432;92;21084;-67
2022/04/16 11:47:26;;;;;;;14.78;5.80;;;;;;;15.57;54.02;101415.47;1552863;92;21605;-66
2022/04/16 11:50:01;;;;;;;13.03;6.10;;;;;;;15.56;54.10;101411.12;1553926;92;21049;-64
2022/04/16 11:52:30;;;;;;;10.68;6.35;;;;;;;15.54;54.14;101422.11;1553759;92;21045;-65
2022/04/16 11:57:49;;;;;;;11.53;6.20;;;;;;;15.49;54.39;101408.30;1529918;92;21071;-66